Amidon, North Dakota
Current Conditions -  °F | °C
As of 4:56 AM on Monday 20 Oct 2014 (Local Time) from KDIK Reporting Station
Clear Clear  
Wind Chill: 32°   Ceiling: Unl
Heat Index: 38°   Visibility: 10mi
Dew Point: 33°   Wind: 8mph
Humidity: 83%   Direction: 180°S
Pressure: 30.01"   Gusts: NA
Location:  46.48°N, 103.32°W
Report Text: KDIK 201056Z AUTO 18007KT 10SM CLR 03/01 A3001 RMK AO2 SLP166 T00330006
Loading
Personal Weather Stations






























Interactive Weather Map
Tropical Storm Tracking
New forecast layout! Learn more

10-Day Weather Forecast

Advertisements
Track Severe Weather on mobile